Time;durP1;ratioP1;P1;durP2;ratioP2;P2;SDS_P1;SDS_P2;PMS_P1;PMS_P2;Temp;Humidity;BMP_temperature;BMP_pressure;BME280_temperature;BME280_humidity;BME280_pressure;Samples;Min_cycle;Max_cycle;Signal;HPM_P1;HPM_P2
2023/12/03 00:00:40;;;;;;;0.80;0.80;;;-0.80;99.90;;;;;;5036372;28;20478;-78
2023/12/03 00:03:07;;;;;;;0.70;0.70;;;-0.90;99.90;;;;;;5018355;28;20474;-75
2023/12/03 00:05:34;;;;;;;0.65;0.65;;;0.00;99.90;;;;;;5013538;28;20772;-77
2023/12/03 00:08:01;;;;;;;0.80;0.80;;;-1.00;99.90;;;;;;5032301;28;20045;-77
2023/12/03 00:10:27;;;;;;;1.13;1.10;;;-1.00;99.90;;;;;;5038899;28;20629;-78
2023/12/03 00:12:52;;;;;;;0.77;0.77;;;-1.00;99.90;;;;;;5044393;28;20036;-75
2023/12/03 00:15:18;;;;;;;1.70;1.60;;;-0.70;99.90;;;;;;5020465;28;20099;-78
2023/12/03 00:17:44;;;;;;;0.80;0.80;;;-1.00;99.90;;;;;;5044849;28;20045;-78
2023/12/03 00:20:10;;;;;;;0.50;0.50;;;-1.10;99.90;;;;;;5036665;28;20053;-76
2023/12/03 00:22:36;;;;;;;0.80;0.80;;;-1.20;99.90;;;;;;5036643;28;20065;-75
2023/12/03 00:25:02;;;;;;;;;;;-1.30;99.90;;;;;;5031818;28;20089;-76
2023/12/03 00:27:27;;;;;;;0.60;0.60;;;-1.30;99.90;;;;;;5036733;28;20252;-75
2023/12/03 00:29:53;;;;;;;0.70;0.70;;;-1.40;99.90;;;;;;5040182;28;20095;-75
2023/12/03 00:32:19;;;;;;;;;;;-1.40;99.90;;;;;;5031433;28;20498;-77
2023/12/03 00:34:44;;;;;;;0.65;0.65;;;-1.40;99.90;;;;;;5030877;28;19921;-76
2023/12/03 00:37:10;;;;;;;;;;;-1.40;99.90;;;;;;5029613;28;20052;-77
2023/12/03 00:39:36;;;;;;;0.70;0.70;;;-1.50;99.90;;;;;;5031493;28;19935;-75
2023/12/03 00:42:02;;;;;;;0.80;0.80;;;-1.40;99.90;;;;;;5036031;28;20049;-75
2023/12/03 00:44:28;;;;;;;;;;;-1.50;99.90;;;;;;5034294;28;20501;-78
2023/12/03 00:46:54;;;;;;;0.60;0.60;;;-1.60;99.90;;;;;;5023084;28;19925;-75
2023/12/03 00:49:19;;;;;;;0.75;0.75;;;-1.60;99.90;;;;;;5038200;28;20130;-78
2023/12/03 00:51:46;;;;;;;0.70;0.70;;;-1.70;99.90;;;;;;5041030;28;20047;-75
2023/12/03 00:54:12;;;;;;;0.70;0.70;;;-1.80;99.90;;;;;;5058934;28;20143;-76
2023/12/03 00:56:37;;;;;;;0.80;0.80;;;-1.80;99.90;;;;;;5038339;28;20128;-78
2023/12/03 00:59:03;;;;;;;2.38;1.42;;;-0.10;99.90;;;;;;5040835;28;20459;-79
2023/12/03 01:01:29;;;;;;;;;;;-1.90;99.90;;;;;;5044285;28;20052;-77
2023/12/03 01:03:55;;;;;;;0.70;0.70;;;-1.90;99.90;;;;;;5039235;28;20019;-78
2023/12/03 01:06:21;;;;;;;0.80;0.80;;;-1.90;99.90;;;;;;5025051;28;20474;-78
2023/12/03 01:08:46;;;;;;;1.40;1.27;;;-1.90;99.90;;;;;;5034974;28;21002;-79
2023/12/03 01:11:12;;;;;;;0.60;0.60;;;-1.80;99.90;;;;;;5050269;28;20045;-78
2023/12/03 01:13:43;;;;;;;0.80;0.80;;;-1.80;99.90;;;;;;5055781;28;20044;-77
2023/12/03 01:16:16;;;;;;;;;;;-1.90;99.90;;;;;;5048876;28;20124;-80
2023/12/03 01:18:43;;;;;;;0.80;0.80;;;-1.90;99.90;;;;;;5030354;28;19972;-79
2023/12/03 01:21:09;;;;;;;0.80;0.80;;;-1.60;99.90;;;;;;5027175;28;20045;-79
2023/12/03 01:23:35;;;;;;;0.70;0.70;;;-1.80;99.90;;;;;;5036339;28;20037;-77
2023/12/03 01:26:01;;;;;;;0.75;0.75;;;-1.70;99.90;;;;;;5039683;28;20366;-79
2023/12/03 01:28:26;;;;;;;0.60;0.60;;;-1.70;99.90;;;;;;5047735;28;20048;-79
2023/12/03 01:30:55;;;;;;;0.80;0.80;;;-1.80;99.90;;;;;;5039685;28;20041;-77
2023/12/03 01:33:21;;;;;;;0.90;0.90;;;-1.70;99.90;;;;;;5040268;28;20087;-78
2023/12/03 01:35:49;;;;;;;0.85;0.85;;;-1.60;99.90;;;;;;5054439;28;20040;-78
2023/12/03 01:38:15;;;;;;;1.08;1.08;;;-1.60;99.90;;;;;;5020052;28;20045;-78
2023/12/03 01:40:51;;;;;;;0.98;0.98;;;-1.60;99.90;;;;;;5048355;28;20046;-80
2023/12/03 01:43:17;;;;;;;0.90;0.90;;;-1.70;99.90;;;;;;5032005;28;20041;-76
2023/12/03 01:45:42;;;;;;;;;;;-1.70;99.90;;;;;;5023950;28;20047;-77
2023/12/03 01:48:08;;;;;;;0.70;0.70;;;-1.70;99.90;;;;;;5025374;28;20008;-76
2023/12/03 01:50:34;;;;;;;;;;;-1.70;99.90;;;;;;5028413;28;20115;-76
2023/12/03 01:52:59;;;;;;;0.70;0.70;;;-1.10;99.90;;;;;;5048184;28;20395;-76
2023/12/03 01:55:25;;;;;;;5.78;1.98;;;-1.70;99.90;;;;;;5056038;28;20486;-76
2023/12/03 01:57:51;;;;;;;;;;;-1.70;99.90;;;;;;5058443;28;20124;-75
2023/12/03 02:00:17;;;;;;;0.80;0.80;;;-1.70;99.90;;;;;;5044769;28;19920;-78
2023/12/03 02:02:43;;;;;;;0.80;0.80;;;-1.70;99.90;;;;;;5052112;28;20440;-76
2023/12/03 02:05:08;;;;;;;;;;;-1.80;99.90;;;;;;5042393;28;20440;-76
2023/12/03 02:07:34;;;;;;;0.80;0.80;;;-1.90;99.90;;;;;;5051546;28;19993;-78
2023/12/03 02:10:00;;;;;;;0.90;0.90;;;-2.00;99.90;;;;;;5036200;28;20808;-77
2023/12/03 02:12:28;;;;;;;0.80;0.80;;;-1.00;99.90;;;;;;5013914;28;20049;-79
2023/12/03 02:14:54;;;;;;;0.77;0.77;;;-2.20;99.90;;;;;;5036612;28;20052;-77
2023/12/03 02:17:19;;;;;;;0.80;0.80;;;-2.20;99.90;;;;;;5046033;28;20102;-77
2023/12/03 02:19:46;;;;;;;0.80;0.80;;;-2.10;99.90;;;;;;5046556;28;20049;-77
2023/12/03 02:22:12;;;;;;;0.90;0.90;;;-2.20;99.90;;;;;;5044399;28;20053;-74
2023/12/03 02:24:37;;;;;;;0.80;0.80;;;-2.20;99.90;;;;;;5055030;28;20038;-77
2023/12/03 02:27:05;;;;;;;0.73;0.73;;;-2.30;99.90;;;;;;5030730;28;20155;-77
2023/12/03 02:29:31;;;;;;;0.80;0.80;;;-2.40;99.90;;;;;;5046223;28;20083;-77
2023/12/03 02:31:57;;;;;;;0.80;0.80;;;-2.50;99.90;;;;;;5052137;28;20486;-79
2023/12/03 02:34:22;;;;;;;0.80;0.80;;;-2.50;99.90;;;;;;5038777;28;20086;-80
2023/12/03 02:36:48;;;;;;;0.73;0.73;;;-2.60;99.90;;;;;;5048963;28;20548;-78
2023/12/03 02:39:14;;;;;;;0.80;0.80;;;-2.60;99.90;;;;;;5020066;28;20083;-75
2023/12/03 02:41:39;;;;;;;;;;;-2.60;99.90;;;;;;5040355;28;20397;-76
2023/12/03 02:44:05;;;;;;;0.60;0.60;;;-2.60;99.90;;;;;;5020163;28;19990;-79
2023/12/03 02:46:30;;;;;;;;;;;-2.70;99.90;;;;;;5032517;28;20053;-77
2023/12/03 02:48:56;;;;;;;1.67;1.30;;;-2.70;99.90;;;;;;5020802;28;19986;-78
2023/12/03 02:51:22;;;;;;;;;;;-2.80;99.90;;;;;;5043772;28;20079;-79
2023/12/03 02:53:48;;;;;;;0.70;0.70;;;-2.80;99.90;;;;;;5053691;28;20353;-77
2023/12/03 02:56:14;;;;;;;;;;;-2.70;99.90;;;;;;5051083;28;20511;-77
2023/12/03 02:58:40;;;;;;;0.75;0.75;;;-2.90;99.90;;;;;;5031213;28;19929;-78
2023/12/03 03:01:08;;;;;;;0.75;0.75;;;-2.80;99.90;;;;;;5024959;28;20037;-78
2023/12/03 03:03:34;;;;;;;0.70;0.70;;;-2.80;99.90;;;;;;5031657;28;20095;-77
2023/12/03 03:06:01;;;;;;;0.80;0.80;;;-2.80;99.90;;;;;;5039796;28;20037;-78
2023/12/03 03:08:26;;;;;;;0.77;0.77;;;-2.90;99.90;;;;;;5045388;28;20041;-77
2023/12/03 03:10:52;;;;;;;0.80;0.80;;;-2.90;99.90;;;;;;5050134;28;20407;-80
2023/12/03 03:13:19;;;;;;;0.90;0.90;;;-2.90;99.90;;;;;;5055277;28;20394;-78
2023/12/03 03:15:48;;;;;;;0.82;0.82;;;-2.90;99.90;;;;;;5046400;28;20047;-77
2023/12/03 03:18:13;;;;;;;;;;;-2.90;99.90;;;;;;5036810;28;20108;-79
2023/12/03 03:20:42;;;;;;;0.90;0.90;;;-3.00;99.90;;;;;;5052610;28;20313;-80
2023/12/03 03:23:08;;;;;;;0.88;0.88;;;-3.00;99.90;;;;;;5054480;28;20045;-78
2023/12/03 03:25:33;;;;;;;0.88;0.88;;;-3.10;99.90;;;;;;5027372;28;20536;-78
2023/12/03 03:27:59;;;;;;;;;;;-3.10;99.90;;;;;;5047821;28;20160;-77
2023/12/03 03:30:25;;;;;;;0.80;0.80;;;-3.10;99.90;;;;;;5012857;28;19920;-78
2023/12/03 03:32:50;;;;;;;0.90;0.90;;;-3.10;99.90;;;;;;5029794;28;20048;-78
2023/12/03 03:35:16;;;;;;;;;;;-3.20;99.90;;;;;;5025073;28;20225;-76
2023/12/03 03:37:43;;;;;;;0.80;0.80;;;-3.20;99.90;;;;;;5026418;28;19916;-76
2023/12/03 03:40:09;;;;;;;0.80;0.80;;;-3.20;99.90;;;;;;5051939;28;20044;-78
2023/12/03 03:42:35;;;;;;;;;;;-3.10;99.90;;;;;;5052827;28;20155;-79
2023/12/03 03:45:00;;;;;;;0.77;0.77;;;-3.10;99.90;;;;;;5028134;28;20433;-77
2023/12/03 03:47:27;;;;;;;;;;;-3.10;99.90;;;;;;5051367;28;20041;-79
2023/12/03 03:49:53;;;;;;;0.80;0.80;;;-3.10;99.90;;;;;;5034235;28;20289;-79
2023/12/03 03:52:19;;;;;;;0.80;0.80;;;-3.20;99.90;;;;;;5019174;28;20340;-78
2023/12/03 03:54:44;;;;;;;0.80;0.80;;;-3.20;99.90;;;;;;5019490;28;20087;-79
2023/12/03 03:57:10;;;;;;;;;;;-3.20;99.90;;;;;;5036200;28;20079;-77
2023/12/03 03:59:41;;;;;;;0.85;0.85;;;-3.20;99.90;;;;;;5043514;28;19931;-79
2023/12/03 04:02:07;;;;;;;0.80;0.80;;;-3.30;99.90;;;;;;5047162;28;20490;-79
2023/12/03 04:04:33;;;;;;;;;;;-3.30;99.90;;;;;;5033897;28;20094;-79
2023/12/03 04:06:58;;;;;;;0.80;0.80;;;-3.30;99.90;;;;;;5049344;28;21230;-79
2023/12/03 04:09:24;;;;;;;;;;;-3.20;99.90;;;;;;5028604;28;20051;-77
2023/12/03 04:11:50;;;;;;;0.60;0.60;;;-3.30;99.90;;;;;;5030756;28;20290;-78
2023/12/03 04:14:16;;;;;;;;;;;-3.30;99.90;;;;;;5029998;28;20123;-79
2023/12/03 04:16:42;;;;;;;0.70;0.70;;;-3.40;99.90;;;;;;5037543;28;20277;-77
2023/12/03 04:19:10;;;;;;;0.70;0.70;;;-3.40;99.90;;;;;;5042577;28;20044;-78
2023/12/03 04:21:38;;;;;;;0.80;0.80;;;-3.40;99.90;;;;;;5017389;28;20068;-78
2023/12/03 04:24:04;;;;;;;0.85;0.85;;;-3.30;99.90;;;;;;5050598;28;20044;-79
2023/12/03 04:26:29;;;;;;;;;;;-3.40;99.90;;;;;;5014412;28;20061;-80
2023/12/03 04:28:56;;;;;;;0.90;0.90;;;-3.40;99.90;;;;;;5035335;28;19932;-78
2023/12/03 04:31:27;;;;;;;;;;;-3.40;99.90;;;;;;5041309;28;20502;-79
2023/12/03 04:33:54;;;;;;;0.80;0.80;;;-3.30;99.90;;;;;;5045533;28;19921;-81
2023/12/03 04:36:23;;;;;;;0.90;0.90;;;-3.40;99.90;;;;;;5054487;28;20073;-78
2023/12/03 04:38:50;;;;;;;0.88;0.88;;;-3.50;99.90;;;;;;5041880;28;20041;-77
2023/12/03 04:41:17;;;;;;;0.90;0.90;;;-3.40;99.90;;;;;;5041610;28;20076;-78
2023/12/03 04:43:43;;;;;;;0.77;0.77;;;-2.90;99.90;;;;;;5042982;28;20048;-77
2023/12/03 04:46:09;;;;;;;;;;;-3.50;99.90;;;;;;5042298;28;20033;-78
2023/12/03 04:48:36;;;;;;;0.90;0.90;;;-3.50;99.90;;;;;;5052423;28;20263;-77
2023/12/03 04:51:02;;;;;;;0.73;0.73;;;-3.50;99.90;;;;;;5047870;28;20057;-78
2023/12/03 04:53:29;;;;;;;0.80;0.80;;;-3.50;99.90;;;;;;5036881;28;20044;-76
2023/12/03 04:55:56;;;;;;;0.80;0.80;;;-3.40;99.90;;;;;;5052310;28;20383;-76
2023/12/03 04:58:22;;;;;;;1.65;1.55;;;-3.30;99.90;;;;;;5026588;28;20739;-78
2023/12/03 05:00:49;;;;;;;0.80;0.80;;;-3.20;99.90;;;;;;5041940;28;20061;-78
2023/12/03 05:03:14;;;;;;;;;;;-3.10;99.90;;;;;;5046095;28;20134;-77
2023/12/03 05:05:40;;;;;;;0.90;0.90;;;-3.00;99.90;;;;;;5044907;28;19925;-77
2023/12/03 05:08:06;;;;;;;;;;;-3.20;99.90;;;;;;5034739;28;20040;-77
2023/12/03 05:10:32;;;;;;;0.80;0.80;;;-3.20;99.90;;;;;;5040334;28;20388;-81
2023/12/03 05:12:57;;;;;;;0.90;0.90;;;-3.10;99.90;;;;;;5041031;28;20174;-78
2023/12/03 05:15:23;;;;;;;;;;;-3.00;99.90;;;;;;5052626;28;20414;-79
2023/12/03 05:17:49;;;;;;;0.85;0.85;;;-1.00;99.90;;;;;;5024750;28;19920;-78
2023/12/03 05:20:14;;;;;;;;;;;-2.50;99.90;;;;;;5040495;28;20048;-76
2023/12/03 05:22:40;;;;;;;0.80;0.80;;;-2.30;99.90;;;;;;5047167;28;19924;-80
2023/12/03 05:25:06;;;;;;;;;;;-2.10;99.90;;;;;;5051012;28;20037;-79
2023/12/03 05:27:33;;;;;;;1.23;1.23;;;-1.90;99.90;;;;;;5043382;28;19920;-80
2023/12/03 05:29:58;;;;;;;0.90;0.90;;;-1.70;99.90;;;;;;5045679;28;20482;-76
2023/12/03 05:32:24;;;;;;;1.20;1.15;;;-1.70;99.90;;;;;;5025358;28;20091;-80
2023/12/03 05:34:51;;;;;;;0.88;0.88;;;-1.60;99.90;;;;;;5022855;28;20040;-77
2023/12/03 05:37:17;;;;;;;0.60;0.60;;;-1.50;99.90;;;;;;5023500;28;20132;-79
2023/12/03 05:39:43;;;;;;;1.00;1.00;;;-1.40;99.90;;;;;;5047043;28;20140;-76
2023/12/03 05:42:08;;;;;;;0.80;0.80;;;-1.40;99.90;;;;;;5042767;28;20049;-79
2023/12/03 05:44:34;;;;;;;;;;;-1.30;99.90;;;;;;5030351;28;20473;-77
2023/12/03 05:47:00;;;;;;;1.63;1.52;;;-1.30;99.90;;;;;;5042972;28;20002;-78
2023/12/03 05:49:27;;;;;;;0.80;0.80;;;-1.20;99.90;;;;;;5056368;28;20524;-79
2023/12/03 05:51:53;;;;;;;0.60;0.60;;;-1.20;99.90;;;;;;5051279;28;20032;-79
2023/12/03 05:54:19;;;;;;;;;;;-1.20;99.90;;;;;;5035606;28;20430;-77
2023/12/03 05:56:45;;;;;;;0.73;0.73;;;-1.10;99.90;;;;;;5046388;28;19924;-79
2023/12/03 05:59:12;;;;;;;1.10;1.10;;;-1.10;99.90;;;;;;5039573;28;20384;-78
2023/12/03 06:01:37;;;;;;;0.60;0.60;;;-1.10;99.90;;;;;;5038572;28;20029;-76
2023/12/03 06:04:06;;;;;;;1.40;1.38;;;-1.10;99.90;;;;;;5036148;28;20052;-78
2023/12/03 06:06:36;;;;;;;1.67;1.42;;;-1.10;99.90;;;;;;5033042;28;20060;-79
2023/12/03 06:09:05;;;;;;;0.70;0.70;;;-1.00;99.90;;;;;;5031849;28;20402;-81
2023/12/03 06:11:35;;;;;;;3.22;3.03;;;0.70;99.90;;;;;;5053176;28;20044;-80
2023/12/03 06:14:02;;;;;;;0.70;0.70;;;-0.90;99.90;;;;;;5044428;28;20128;-80
2023/12/03 06:16:27;;;;;;;0.80;0.80;;;-0.80;99.90;;;;;;5038570;28;20051;-79
2023/12/03 06:18:53;;;;;;;0.60;0.60;;;-0.90;99.90;;;;;;5037370;28;20049;-80
2023/12/03 06:21:19;;;;;;;0.70;0.70;;;-0.40;99.90;;;;;;5020604;28;20124;-78
2023/12/03 06:23:44;;;;;;;1.20;1.15;;;-0.80;99.90;;;;;;5019808;28;20045;-80
2023/12/03 06:26:10;;;;;;;0.77;0.77;;;-0.70;99.90;;;;;;5047357;28;20044;-78
2023/12/03 06:28:36;;;;;;;1.90;1.80;;;-0.70;99.90;;;;;;5022850;28;20052;-80
2023/12/03 06:31:07;;;;;;;0.70;0.70;;;-0.60;99.90;;;;;;5036439;28;20376;-79
2023/12/03 06:33:33;;;;;;;0.80;0.80;;;-0.60;99.90;;;;;;5043581;28;20041;-78
2023/12/03 06:35:59;;;;;;;;;;;-0.60;99.90;;;;;;5055578;28;20060;-80
2023/12/03 06:38:25;;;;;;;1.27;1.27;;;-0.60;99.90;;;;;;5039736;28;20355;-77
2023/12/03 06:40:50;;;;;;;0.75;0.75;;;-0.60;99.90;;;;;;5040179;28;20084;-82
2023/12/03 06:43:16;;;;;;;0.82;0.82;;;-0.50;99.90;;;;;;5038509;28;20037;-80
2023/12/03 06:45:42;;;;;;;1.00;1.00;;;-0.50;99.90;;;;;;5043421;28;20083;-79
2023/12/03 06:48:07;;;;;;;1.42;1.33;;;-0.50;99.90;;;;;;5035190;28;20540;-80
2023/12/03 06:50:33;;;;;;;0.80;0.80;;;-0.40;99.90;;;;;;5040924;28;20036;-77
2023/12/03 06:53:00;;;;;;;0.80;0.80;;;-0.40;99.90;;;;;;5041304;28;20033;-78
2023/12/03 06:55:26;;;;;;;1.25;1.20;;;-0.20;99.90;;;;;;5042185;28;20037;-77
2023/12/03 06:57:52;;;;;;;0.70;0.70;;;-0.40;99.90;;;;;;5025550;28;20053;-79
2023/12/03 07:00:19;;;;;;;1.27;1.27;;;-0.40;99.90;;;;;;5012206;28;20175;-79
2023/12/03 07:02:44;;;;;;;0.68;0.68;;;-0.30;99.90;;;;;;5033123;28;20058;-79
2023/12/03 07:05:10;;;;;;;0.85;0.85;;;-0.30;99.90;;;;;;5036139;28;20045;-80
2023/12/03 07:07:36;;;;;;;0.60;0.60;;;-0.30;99.90;;;;;;5016536;28;20391;-77
2023/12/03 07:10:03;;;;;;;0.70;0.70;;;-0.30;99.90;;;;;;5034185;28;20045;-80
2023/12/03 07:12:29;;;;;;;0.60;0.60;;;-0.30;99.90;;;;;;5010763;28;20055;-82
2023/12/03 07:14:55;;;;;;;1.00;1.00;;;-0.20;99.90;;;;;;5037170;28;20049;-81
2023/12/03 07:17:22;;;;;;;;;;;-0.20;99.90;;;;;;5046448;28;20119;-78
2023/12/03 07:19:48;;;;;;;0.80;0.80;;;-0.10;99.90;;;;;;5044177;28;19943;-80
2023/12/03 07:22:15;;;;;;;0.80;0.80;;;-0.10;99.90;;;;;;5027046;28;20040;-81
2023/12/03 07:24:41;;;;;;;3.70;3.42;;;-0.10;99.90;;;;;;5030021;28;20060;-78
2023/12/03 07:27:07;;;;;;;1.80;1.35;;;-0.10;99.90;;;;;;5035246;28;20128;-79
2023/12/03 07:29:33;;;;;;;;;;;0.00;99.90;;;;;;5042258;28;20098;-81
2023/12/03 07:32:00;;;;;;;0.60;0.60;;;0.00;99.90;;;;;;5042771;28;20015;-80
2023/12/03 07:34:27;;;;;;;1.15;1.13;;;0.00;99.90;;;;;;5042418;28;20047;-81
2023/12/03 07:36:53;;;;;;;0.70;0.70;;;0.00;99.90;;;;;;5027296;28;20374;-82
2023/12/03 07:39:23;;;;;;;0.60;0.60;;;0.00;99.90;;;;;;5040005;28;20038;-79
2023/12/03 07:41:51;;;;;;;1.15;1.15;;;0.00;99.90;;;;;;5025699;28;20503;-79
2023/12/03 07:44:17;;;;;;;0.60;0.60;;;1.50;99.90;;;;;;5037560;28;20486;-81
2023/12/03 07:46:43;;;;;;;0.80;0.80;;;0.10;99.90;;;;;;5019994;28;20032;-83
2023/12/03 07:49:08;;;;;;;0.65;0.65;;;0.10;99.90;;;;;;5039643;28;20075;-81
2023/12/03 07:51:34;;;;;;;2.60;2.38;;;0.10;99.90;;;;;;5043669;28;20094;-84
2023/12/03 07:54:00;;;;;;;0.85;0.82;;;0.10;99.90;;;;;;5028955;28;20139;-80
2023/12/03 07:56:40;;;;;;;0.60;0.60;;;0.60;99.90;;;;;;5016786;28;20041;-80
2023/12/03 07:59:06;;;;;;;0.80;0.80;;;0.20;99.90;;;;;;5038676;28;20507;-83
2023/12/03 08:01:33;;;;;;;0.70;0.70;;;0.20;99.90;;;;;;5040680;28;20056;-78
2023/12/03 08:03:59;;;;;;;0.75;0.75;;;0.20;99.90;;;;;;5038454;28;20045;-78
2023/12/03 08:06:25;;;;;;;0.80;0.80;;;0.20;99.90;;;;;;5019688;28;20049;-81
2023/12/03 08:08:51;;;;;;;;;;;0.30;99.90;;;;;;5044016;28;20042;-81
2023/12/03 08:11:17;;;;;;;0.65;0.65;;;0.30;99.90;;;;;;5041104;28;19924;-81
2023/12/03 08:13:43;;;;;;;0.68;0.68;;;0.30;99.90;;;;;;5041372;28;20033;-82
2023/12/03 08:16:10;;;;;;;0.90;0.90;;;0.30;99.90;;;;;;5024825;28;20470;-81
2023/12/03 08:18:37;;;;;;;0.77;0.77;;;0.30;99.90;;;;;;5034841;28;20128;-78
2023/12/03 08:21:03;;;;;;;0.50;0.50;;;0.40;99.90;;;;;;5034675;28;20537;-83
2023/12/03 08:23:30;;;;;;;0.60;0.60;;;0.30;99.90;;;;;;5031955;28;20498;-78
2023/12/03 08:25:56;;;;;;;1.98;1.88;;;0.90;99.90;;;;;;5023855;28;20098;-82
2023/12/03 08:28:22;;;;;;;0.70;0.70;;;0.40;99.90;;;;;;5006161;28;20053;-81
2023/12/03 08:30:48;;;;;;;0.70;0.70;;;0.40;99.90;;;;;;5025128;28;20447;-82
2023/12/03 08:33:14;;;;;;;0.70;0.70;;;0.40;99.90;;;;;;5022096;28;20056;-81
2023/12/03 08:35:40;;;;;;;;;;;0.40;99.90;;;;;;5037573;28;20049;-78
2023/12/03 08:38:06;;;;;;;0.60;0.60;;;1.10;99.90;;;;;;5024816;28;20681;-78
2023/12/03 08:40:33;;;;;;;1.80;1.70;;;0.40;99.90;;;;;;5036907;28;20101;-81
2023/12/03 08:42:59;;;;;;;0.80;0.80;;;0.80;99.90;;;;;;5036801;28;20041;-81
2023/12/03 08:45:25;;;;;;;0.80;0.80;;;0.40;99.90;;;;;;5026058;28;20095;-78
2023/12/03 08:47:51;;;;;;;0.73;0.73;;;0.40;99.90;;;;;;5020930;28;20047;-81
2023/12/03 08:50:17;;;;;;;2.03;1.95;;;1.20;99.90;;;;;;5034462;28;20033;-80
2023/12/03 08:52:43;;;;;;;2.20;1.25;;;0.40;99.90;;;;;;5040128;28;20049;-79
2023/12/03 08:55:09;;;;;;;0.70;0.70;;;0.40;99.90;;;;;;5044895;28;20041;-80
2023/12/03 08:57:36;;;;;;;1.90;1.80;;;0.40;99.90;;;;;;5028519;28;20075;-77
2023/12/03 09:00:04;;;;;;;0.95;0.95;;;0.50;99.90;;;;;;5036009;28;20593;-78
2023/12/03 09:02:30;;;;;;;0.65;0.65;;;0.50;99.90;;;;;;5039180;28;20049;-77
2023/12/03 09:04:55;;;;;;;1.00;1.00;;;0.50;99.90;;;;;;5026322;28;20046;-79
2023/12/03 09:07:21;;;;;;;8.70;4.03;;;0.50;99.90;;;;;;5026094;28;20529;-79
2023/12/03 09:09:48;;;;;;;0.70;0.70;;;0.50;99.90;;;;;;5029343;28;20064;-79
2023/12/03 09:12:15;;;;;;;0.60;0.60;;;0.60;99.90;;;;;;5025845;28;20103;-78
2023/12/03 09:14:41;;;;;;;0.70;0.70;;;0.60;99.90;;;;;;5030977;28;20052;-78
2023/12/03 09:17:07;;;;;;;1.35;1.33;;;0.60;99.90;;;;;;5037053;28;20051;-78
2023/12/03 09:19:33;;;;;;;0.70;0.70;;;0.70;99.90;;;;;;5020229;28;20083;-79
2023/12/03 09:21:58;;;;;;;0.70;0.70;;;0.70;99.90;;;;;;5040063;28;20427;-78
2023/12/03 09:24:24;;;;;;;0.50;0.50;;;0.80;99.90;;;;;;5018646;28;20046;-79
2023/12/03 09:26:50;;;;;;;1.50;1.48;;;0.70;99.90;;;;;;5042630;28;20394;-79
2023/12/03 09:29:15;;;;;;;0.70;0.70;;;0.80;99.90;;;;;;5029501;28;20103;-80
2023/12/03 09:31:41;;;;;;;0.70;0.70;;;0.80;99.90;;;;;;5039609;28;20102;-78
2023/12/03 09:34:07;;;;;;;0.60;0.60;;;0.90;99.90;;;;;;5037079;28;20057;-79
2023/12/03 09:36:34;;;;;;;1.77;1.67;;;0.90;99.90;;;;;;5024306;28;20519;-79
2023/12/03 09:39:04;;;;;;;0.70;0.70;;;0.90;99.90;;;;;;5047927;28;20519;-78
2023/12/03 09:41:33;;;;;;;0.70;0.70;;;1.00;99.90;;;;;;5031879;28;20067;-79
2023/12/03 09:44:07;;;;;;;0.85;0.85;;;1.00;99.90;;;;;;5031572;28;20076;-78
2023/12/03 09:46:35;;;;;;;1.15;1.15;;;1.00;99.90;;;;;;5041394;28;20048;-79
2023/12/03 09:49:03;;;;;;;0.70;0.70;;;1.20;99.90;;;;;;5043656;28;20045;-78
2023/12/03 09:51:32;;;;;;;1.27;1.27;;;1.00;99.90;;;;;;5032413;28;20076;-77
2023/12/03 09:53:59;;;;;;;1.90;1.80;;;1.10;99.90;;;;;;5037386;28;20048;-79
2023/12/03 09:56:25;;;;;;;0.70;0.70;;;1.10;99.90;;;;;;5047736;28;20040;-79
2023/12/03 09:58:52;;;;;;;0.65;0.65;;;1.20;99.90;;;;;;5038581;28;20064;-79
2023/12/03 10:01:22;;;;;;;0.60;0.60;;;1.10;99.90;;;;;;5044154;28;20060;-79
2023/12/03 10:03:51;;;;;;;1.42;1.33;;;1.20;99.90;;;;;;5047820;28;20083;-78
2023/12/03 10:06:21;;;;;;;1.67;1.45;;;1.80;99.90;;;;;;5029065;28;20063;-79
2023/12/03 10:08:51;;;;;;;0.70;0.70;;;1.10;99.90;;;;;;5039753;28;20107;-78
2023/12/03 10:11:24;;;;;;;0.88;0.88;;;1.10;99.90;;;;;;4993065;28;20042;-78
2023/12/03 10:13:50;;;;;;;0.82;0.82;;;1.00;99.90;;;;;;5048746;28;20037;-79
2023/12/03 10:16:18;;;;;;;1.25;1.25;;;1.10;99.90;;;;;;5041929;28;20041;-78
2023/12/03 10:18:44;;;;;;;0.68;0.68;;;1.50;99.90;;;;;;5039065;28;20052;-80
2023/12/03 10:21:10;;;;;;;0.95;0.95;;;1.30;99.90;;;;;;5043090;28;20513;-78
2023/12/03 10:23:37;;;;;;;1.25;1.25;;;1.20;99.90;;;;;;5039820;28;20391;-79
2023/12/03 10:26:13;;;;;;;1.42;1.30;;;1.40;99.90;;;;;;5036561;28;20053;-79
2023/12/03 10:28:44;;;;;;;2.75;1.35;;;1.20;99.90;;;;;;5039918;28;20100;-78
2023/12/03 10:31:15;;;;;;;1.38;1.27;;;1.30;99.90;;;;;;5032242;28;20044;-79
2023/12/03 10:33:45;;;;;;;2.08;1.48;;;1.30;99.90;;;;;;5048221;28;20045;-79
2023/12/03 10:36:11;;;;;;;0.80;0.80;;;1.30;99.90;;;;;;5034274;28;20139;-79
2023/12/03 10:38:38;;;;;;;0.70;0.70;;;1.30;99.90;;;;;;5045565;28;20041;-79
2023/12/03 10:41:16;;;;;;;2.80;1.58;;;1.30;99.90;;;;;;5049032;28;20120;-78
2023/12/03 10:43:45;;;;;;;1.00;1.00;;;1.30;99.90;;;;;;5054317;28;20040;-80
2023/12/03 10:46:14;;;;;;;0.90;0.90;;;1.70;99.90;;;;;;5053563;28;20050;-79
2023/12/03 10:48:40;;;;;;;0.68;0.68;;;1.30;99.90;;;;;;5030387;28;20400;-79
2023/12/03 10:51:07;;;;;;;0.60;0.60;;;1.50;99.90;;;;;;5056583;28;20037;-79
2023/12/03 10:53:34;;;;;;;0.90;0.90;;;1.30;99.90;;;;;;5056848;28;20075;-80
2023/12/03 10:56:05;;;;;;;0.70;0.70;;;1.70;99.90;;;;;;5050424;28;20041;-79
2023/12/03 10:58:35;;;;;;;11.27;3.67;;;1.30;99.90;;;;;;5053132;28;20040;-78
2023/12/03 11:01:25;;;;;;;2.85;1.58;;;1.30;99.90;;;;;;5052234;28;20454;-79
2023/12/03 11:04:02;;;;;;;0.50;0.50;;;1.90;99.90;;;;;;5033045;28;20114;-79
2023/12/03 11:06:32;;;;;;;0.70;0.70;;;1.40;99.90;;;;;;5035970;28;20044;-80
2023/12/03 11:08:58;;;;;;;1.85;1.75;;;1.40;99.90;;;;;;5022250;28;20042;-80
2023/12/03 11:11:25;;;;;;;1.05;1.05;;;1.40;99.90;;;;;;5008975;28;20056;-79
2023/12/03 11:13:53;;;;;;;;;;;1.50;99.90;;;;;;5041069;28;20269;-79
2023/12/03 11:16:20;;;;;;;0.60;0.60;;;1.50;99.90;;;;;;5016560;28;19956;-80
2023/12/03 11:18:54;;;;;;;1.13;0.77;;;1.50;99.90;;;;;;5031010;28;20037;-79
2023/12/03 11:21:37;;;;;;;0.60;0.60;;;1.60;99.90;;;;;;5037755;28;20073;-79
2023/12/03 11:24:44;;;;;;;1.58;1.48;;;1.60;99.90;;;;;;5039614;28;20033;-79
2023/12/03 11:27:10;;;;;;;1.20;1.20;;;1.70;99.90;;;;;;5020298;28;20389;-78
2023/12/03 11:29:46;;;;;;;;;;;2.80;99.90;;;;;;5039864;28;21271;-79
2023/12/03 11:32:12;;;;;;;4.75;2.90;;;1.80;99.90;;;;;;5038202;28;20521;-80
2023/12/03 11:34:37;;;;;;;1.35;1.25;;;1.80;99.90;;;;;;5042423;28;20124;-80
2023/12/03 11:37:03;;;;;;;0.70;0.70;;;1.90;99.90;;;;;;5012159;28;20469;-80
2023/12/03 11:39:29;;;;;;;0.50;0.50;;;2.30;99.90;;;;;;5042959;28;20087;-78
2023/12/03 11:42:03;;;;;;;0.77;0.77;;;2.00;99.90;;;;;;5017121;28;20064;-78
2023/12/03 11:44:29;;;;;;;2.33;2.15;;;2.70;99.90;;;;;;5036144;28;20041;-80
2023/12/03 11:47:02;;;;;;;;;;;2.70;99.90;;;;;;5034991;28;20056;-79
2023/12/03 11:49:29;;;;;;;1.23;1.23;;;2.20;99.90;;;;;;5037925;28;20004;-79
2023/12/03 11:51:55;;;;;;;1.42;1.35;;;2.20;99.90;;;;;;5017023;28;20414;-79
2023/12/03 11:54:25;;;;;;;0.90;0.90;;;2.10;99.90;;;;;;5036657;28;20076;-79
2023/12/03 11:56:57;;;;;;;0.70;0.70;;;2.10;99.90;;;;;;5033428;28;20039;-80
2023/12/03 11:59:22;;;;;;;2.05;1.77;;;2.20;99.90;;;;;;5039248;28;20044;-79
2023/12/03 12:01:48;;;;;;;1.67;1.58;;;2.20;99.90;;;;;;5038936;28;20367;-80
2023/12/03 12:04:23;;;;;;;1.40;1.00;;;2.30;99.90;;;;;;5031022;28;20440;-79
2023/12/03 12:06:53;;;;;;;0.50;0.50;;;2.70;99.90;;;;;;5032549;28;20127;-79
2023/12/03 12:09:22;;;;;;;1.38;1.27;;;2.20;99.90;;;;;;5017080;28;20049;-79
2023/12/03 12:11:49;;;;;;;6.22;2.10;;;2.20;99.90;;;;;;5017330;28;20773;-78
2023/12/03 12:14:19;;;;;;;2.55;2.40;;;2.10;99.90;;;;;;5025256;28;20391;-81
2023/12/03 12:16:45;;;;;;;0.60;0.60;;;2.00;99.90;;;;;;5031720;28;20044;-79
2023/12/03 12:19:11;;;;;;;1.27;1.00;;;2.00;99.90;;;;;;5039071;28;20379;-80
2023/12/03 12:21:57;;;;;;;1.92;1.33;;;2.00;99.90;;;;;;5028634;28;20084;-79
2023/12/03 12:24:24;;;;;;;1.33;1.33;;;2.00;99.90;;;;;;5016190;28;20064;-78
2023/12/03 12:26:50;;;;;;;1.92;1.80;;;2.80;99.90;;;;;;5034530;28;20310;-79
2023/12/03 12:29:18;;;;;;;1.25;1.25;;;2.00;99.90;;;;;;5031537;28;20055;-79
2023/12/03 12:31:45;;;;;;;1.17;1.17;;;1.90;99.90;;;;;;5031425;28;20052;-80
2023/12/03 12:34:11;;;;;;;1.10;1.10;;;1.90;99.90;;;;;;5031840;28;20067;-80
2023/12/03 12:36:37;;;;;;;3.38;2.83;;;1.80;99.90;;;;;;5030954;28;20491;-79
2023/12/03 12:39:03;;;;;;;1.02;1.02;;;1.90;99.90;;;;;;5009349;28;20179;-81
2023/12/03 12:41:39;;;;;;;1.67;1.58;;;1.90;99.90;;;;;;5035319;28;20865;-78
2023/12/03 12:44:04;;;;;;;1.55;1.40;;;2.00;99.90;;;;;;5031604;28;20160;-78
2023/12/03 12:46:31;;;;;;;0.90;0.90;;;1.90;99.90;;;;;;5034170;28;20293;-80
2023/12/03 12:49:16;;;;;;;1.00;1.00;;;1.90;99.90;;;;;;5031391;28;20425;-79
2023/12/03 12:51:41;;;;;;;0.90;0.90;;;1.70;99.90;;;;;;5008569;28;20041;-81
2023/12/03 12:54:08;;;;;;;1.13;1.13;;;1.60;99.90;;;;;;5031804;28;20049;-79
2023/12/03 12:56:34;;;;;;;1.70;1.60;;;1.80;99.90;;;;;;5036148;28;20433;-78
2023/12/03 12:59:00;;;;;;;0.68;0.68;;;1.50;99.90;;;;;;5015864;28;20129;-80
2023/12/03 13:01:28;;;;;;;0.70;0.70;;;1.60;99.90;;;;;;5036624;28;20135;-80